Time;durP1;ratioP1;P1;durP2;ratioP2;P2;SDS_P1;SDS_P2;PMS_P1;PMS_P2;Temp;Humidity;BMP_temperature;BMP_pressure;BME280_temperature;BME280_humidity;BME280_pressure;Samples;Min_cycle;Max_cycle;Signal;HPM_P1;HPM_P2
2022/04/03 00:02:05;;;;;;;15.05;10.93;;;3.00;99.90;;;;;;5076821;28;20217;-85
2022/04/03 00:04:32;;;;;;;17.73;11.77;;;2.80;99.90;;;;;;5076746;28;20232;-85
2022/04/03 00:07:00;;;;;;;14.95;11.32;;;2.90;99.90;;;;;;5065108;28;20233;-84
2022/04/03 00:09:27;;;;;;;17.08;11.00;;;2.70;99.90;;;;;;5059519;28;20201;-85
2022/04/03 00:11:54;;;;;;;15.25;11.35;;;3.00;99.90;;;;;;5061209;28;20229;-84
2022/04/03 00:14:23;;;;;;;22.58;12.13;;;2.80;99.90;;;;;;5060571;28;20239;-85
2022/04/03 00:16:52;;;;;;;17.38;12.30;;;3.00;99.90;;;;;;5060530;28;20202;-84
2022/04/03 00:19:19;;;;;;;17.08;12.60;;;3.00;99.90;;;;;;5058811;28;20206;-84
2022/04/03 00:21:49;;;;;;;14.48;10.13;;;2.80;99.90;;;;;;5061481;28;20272;-84
2022/04/03 00:24:17;;;;;;;17.20;12.93;;;3.00;99.90;;;;;;5061459;28;20198;-84
2022/04/03 00:26:44;;;;;;;18.33;11.88;;;2.90;99.90;;;;;;5060816;28;20210;-84
2022/04/03 00:29:11;;;;;;;15.88;11.40;;;2.80;99.90;;;;;;5060384;28;20206;-84
2022/04/03 00:31:38;;;;;;;16.30;11.65;;;3.00;99.90;;;;;;5060330;28;20229;-86
2022/04/03 00:34:07;;;;;;;18.42;13.02;;;2.70;99.90;;;;;;5060898;28;20238;-84
2022/04/03 00:36:35;;;;;;;18.33;11.80;;;2.80;99.90;;;;;;5066864;28;20678;-86
2022/04/03 00:39:02;;;;;;;17.17;11.55;;;2.80;99.90;;;;;;5061272;28;20284;-84
2022/04/03 00:41:29;;;;;;;29.58;12.00;;;2.90;99.90;;;;;;5061413;28;20233;-86
2022/04/03 00:43:57;;;;;;;18.33;11.93;;;3.00;99.90;;;;;;5063958;28;20296;-86
2022/04/03 00:46:28;;;;;;;18.08;12.40;;;2.60;99.90;;;;;;5066133;28;20206;-86
2022/04/03 00:48:55;;;;;;;18.20;12.98;;;2.80;99.90;;;;;;5067319;28;20190;-86
2022/04/03 00:51:25;;;;;;;16.45;12.70;;;2.50;99.90;;;;;;5062029;28;20229;-86
2022/04/03 00:53:52;;;;;;;18.60;11.88;;;2.70;99.90;;;;;;5061353;28;20208;-85
2022/04/03 00:56:19;;;;;;;21.08;11.82;;;2.90;99.90;;;;;;5060594;28;20211;-85
2022/04/03 00:58:46;;;;;;;17.50;12.45;;;2.40;99.90;;;;;;5062204;28;20240;-85
2022/04/03 01:01:13;;;;;;;19.40;12.43;;;2.70;99.90;;;;;;5066157;28;20229;-86
2022/04/03 01:03:40;;;;;;;16.15;12.77;;;2.70;99.90;;;;;;5074767;28;20238;-85
2022/04/03 01:06:07;;;;;;;14.55;10.18;;;2.70;99.90;;;;;;5074122;28;20202;-86
2022/04/03 01:08:36;;;;;;;19.40;11.90;;;2.80;99.90;;;;;;5067434;28;20240;-85
2022/04/03 01:11:03;;;;;;;19.15;12.98;;;2.70;99.90;;;;;;5072891;28;20233;-85
2022/04/03 01:13:30;;;;;;;18.85;12.45;;;2.70;99.90;;;;;;5072032;28;20214;-85
2022/04/03 01:15:59;;;;;;;21.38;14.05;;;2.70;99.90;;;;;;5067545;28;20198;-86
2022/04/03 01:18:29;;;;;;;18.35;12.45;;;2.70;99.90;;;;;;5062813;28;20212;-86
2022/04/03 01:20:56;;;;;;;17.30;12.43;;;2.70;99.90;;;;;;5059837;28;20225;-85
2022/04/03 01:23:25;;;;;;;16.25;9.50;;;2.80;99.90;;;;;;5059765;28;20210;-85
2022/04/03 01:25:53;;;;;;;19.08;12.30;;;2.80;99.90;;;;;;5070615;28;20210;-85
2022/04/03 01:28:20;;;;;;;16.88;13.30;;;2.20;99.90;;;;;;5070813;28;20214;-85
2022/04/03 01:30:47;;;;;;;17.65;12.23;;;2.30;99.90;;;;;;5069950;28;20226;-85
2022/04/03 01:33:14;;;;;;;21.45;13.55;;;2.60;99.90;;;;;;5069178;28;20202;-85
2022/04/03 01:35:44;;;;;;;18.45;13.35;;;2.40;99.90;;;;;;5067908;28;20198;-86
2022/04/03 01:38:12;;;;;;;20.50;13.50;;;2.60;99.90;;;;;;5065101;28;20230;-86
2022/04/03 01:40:39;;;;;;;20.95;14.50;;;2.70;99.90;;;;;;5064569;28;20233;-85
2022/04/03 01:43:11;;;;;;;20.15;12.35;;;2.70;99.90;;;;;;5063914;28;20210;-85
2022/04/03 01:45:40;;;;;;;18.00;12.45;;;2.90;99.90;;;;;;5063878;28;20292;-85
2022/04/03 01:48:09;;;;;;;18.40;12.45;;;2.70;99.90;;;;;;5062823;28;20210;-86
2022/04/03 01:50:36;;;;;;;21.40;12.90;;;2.60;99.90;;;;;;5061590;28;20233;-86
2022/04/03 01:53:03;;;;;;;21.88;12.25;;;2.70;99.90;;;;;;5062890;28;20202;-85
2022/04/03 01:55:30;;;;;;;15.43;10.93;;;2.80;99.90;;;;;;5062126;28;20205;-86
2022/04/03 01:57:58;;;;;;;19.65;11.90;;;2.90;99.90;;;;;;5061966;28;20209;-85
2022/04/03 02:00:26;;;;;;;15.10;11.25;;;2.90;99.90;;;;;;5060597;28;20226;-85
2022/04/03 02:02:55;;;;;;;16.88;11.25;;;2.80;99.90;;;;;;5058141;28;20543;-85
2022/04/03 02:05:24;;;;;;;14.98;11.25;;;3.00;99.90;;;;;;5059304;28;20293;-85
2022/04/03 02:07:51;;;;;;;17.63;11.45;;;3.00;99.90;;;;;;5059528;28;20202;-85
2022/04/03 02:10:18;;;;;;;18.08;11.60;;;2.90;99.90;;;;;;5060939;28;20291;-84
2022/04/03 02:12:45;;;;;;;18.65;10.82;;;2.70;99.90;;;;;;5063828;28;20202;-84
2022/04/03 02:15:15;;;;;;;16.70;10.65;;;2.90;99.90;;;;;;5062734;28;20205;-85
2022/04/03 02:17:43;;;;;;;15.55;11.27;;;2.90;99.90;;;;;;5062102;28;20205;-85
2022/04/03 02:20:12;;;;;;;17.10;12.50;;;2.80;99.90;;;;;;5062326;28;20234;-85
2022/04/03 02:22:41;;;;;;;17.15;12.38;;;2.80;99.90;;;;;;5063542;28;20203;-85
2022/04/03 02:25:11;;;;;;;16.92;12.98;;;2.80;99.90;;;;;;5062964;28;20210;-84
2022/04/03 02:27:39;;;;;;;16.95;11.45;;;2.90;99.90;;;;;;5076080;28;20198;-85
2022/04/03 02:30:10;;;;;;;18.65;10.88;;;2.80;99.90;;;;;;5077956;28;20217;-85
2022/04/03 02:32:38;;;;;;;16.40;11.40;;;2.70;99.90;;;;;;5072384;28;20201;-85
2022/04/03 02:35:10;;;;;;;17.20;12.02;;;2.50;99.90;;;;;;5078452;28;20202;-84
2022/04/03 02:37:39;;;;;;;15.43;11.00;;;2.70;99.90;;;;;;5074932;28;20198;-84
2022/04/03 02:40:09;;;;;;;16.67;11.75;;;2.80;99.90;;;;;;5078584;28;20222;-84
2022/04/03 02:42:38;;;;;;;15.52;11.18;;;2.90;99.90;;;;;;5075842;28;20625;-85
2022/04/03 02:45:10;;;;;;;17.25;12.60;;;2.90;99.90;;;;;;5077210;28;20206;-84
2022/04/03 02:47:37;;;;;;;17.75;12.55;;;2.90;99.90;;;;;;5075683;28;20202;-85
2022/04/03 02:50:13;;;;;;;15.20;10.73;;;2.70;99.90;;;;;;5064510;28;20745;-85
2022/04/03 02:52:40;;;;;;;15.95;11.45;;;3.00;99.90;;;;;;5067367;28;20205;-84
2022/04/03 02:55:07;;;;;;;19.55;12.73;;;3.00;99.90;;;;;;5075545;28;20186;-84
2022/04/03 02:57:34;;;;;;;15.13;11.02;;;2.90;99.90;;;;;;5073551;28;20206;-85
2022/04/03 03:00:02;;;;;;;17.27;11.20;;;2.80;99.90;;;;;;5063337;28;20209;-84
2022/04/03 03:02:29;;;;;;;17.77;11.75;;;3.00;99.90;;;;;;5061937;28;20226;-84
2022/04/03 03:04:56;;;;;;;20.00;10.07;;;2.90;99.90;;;;;;5073278;28;20200;-84
2022/04/03 03:07:25;;;;;;;16.80;11.68;;;2.70;99.90;;;;;;5077341;28;20203;-84
2022/04/03 03:09:55;;;;;;;23.58;12.32;;;2.90;99.90;;;;;;5072857;28;20232;-85
2022/04/03 03:12:25;;;;;;;15.52;11.25;;;3.10;99.90;;;;;;5072910;28;20299;-84
2022/04/03 03:14:54;;;;;;;14.02;10.45;;;2.90;99.90;;;;;;5072344;28;20202;-84
2022/04/03 03:17:23;;;;;;;17.63;11.40;;;2.80;99.90;;;;;;5069141;28;20652;-84
2022/04/03 03:19:50;;;;;;;19.75;12.20;;;2.80;99.90;;;;;;5064897;28;20210;-84
2022/04/03 03:22:22;;;;;;;15.65;10.07;;;2.80;99.90;;;;;;5063761;28;20252;-84
2022/04/03 03:24:51;;;;;;;18.20;10.25;;;2.80;99.90;;;;;;5062139;28;20206;-84
2022/04/03 03:27:18;;;;;;;15.43;10.65;;;2.90;99.90;;;;;;5061089;28;20217;-86
2022/04/03 03:29:47;;;;;;;12.95;9.35;;;2.70;99.90;;;;;;5060076;28;20412;-84
2022/04/03 03:32:17;;;;;;;16.20;11.30;;;2.60;99.90;;;;;;5060730;28;20206;-84
2022/04/03 03:34:46;;;;;;;15.95;11.48;;;2.80;99.90;;;;;;5061444;28;20210;-84
2022/04/03 03:37:18;;;;;;;14.05;10.07;;;2.80;99.90;;;;;;5059515;28;20248;-86
2022/04/03 03:39:47;;;;;;;17.55;10.85;;;2.70;99.90;;;;;;5061251;28;20232;-84
2022/04/03 03:42:15;;;;;;;15.15;10.20;;;2.70;99.90;;;;;;5061034;28;20226;-84
2022/04/03 03:44:42;;;;;;;15.32;10.45;;;3.00;99.90;;;;;;5061753;28;20556;-84
2022/04/03 03:47:12;;;;;;;18.13;11.48;;;2.90;99.90;;;;;;5061716;28;20210;-83
2022/04/03 03:49:39;;;;;;;15.40;10.88;;;2.90;99.90;;;;;;5065211;28;20292;-84
2022/04/03 03:52:09;;;;;;;15.63;10.77;;;2.70;99.90;;;;;;5065560;28;20230;-85
2022/04/03 03:54:40;;;;;;;16.98;10.40;;;2.80;99.90;;;;;;5062007;28;20652;-87
2022/04/03 03:57:07;;;;;;;14.82;10.32;;;2.90;99.90;;;;;;5061438;28;20190;-84
2022/04/03 03:59:36;;;;;;;13.80;9.50;;;2.70;99.90;;;;;;5061183;28;20214;-86
2022/04/03 04:02:03;;;;;;;16.70;10.88;;;2.80;99.90;;;;;;5061291;28;20225;-86
2022/04/03 04:04:32;;;;;;;17.45;11.10;;;2.40;99.90;;;;;;5062168;28;20198;-86
2022/04/03 04:07:07;;;;;;;16.27;10.32;;;2.90;99.90;;;;;;5063599;28;20260;-86
2022/04/03 04:09:34;;;;;;;18.60;10.98;;;2.60;99.90;;;;;;5065038;28;20192;-84
2022/04/03 04:12:05;;;;;;;16.30;11.20;;;2.60;99.90;;;;;;5062207;28;20226;-87
2022/04/03 04:14:38;;;;;;;17.63;11.82;;;2.60;99.90;;;;;;5062946;28;20205;-84
2022/04/03 04:17:06;;;;;;;17.25;11.45;;;2.80;99.90;;;;;;5068135;28;20658;-83
2022/04/03 04:19:33;;;;;;;16.85;11.18;;;2.80;99.90;;;;;;5059280;28;20206;-85
2022/04/03 04:22:01;;;;;;;17.63;11.05;;;2.80;99.90;;;;;;5055861;28;20261;-85
2022/04/03 04:24:28;;;;;;;17.77;11.30;;;2.80;99.90;;;;;;5057145;28;20301;-85
2022/04/03 04:26:59;;;;;;;15.02;10.77;;;2.90;99.90;;;;;;5056121;28;20209;-85
2022/04/03 04:29:26;;;;;;;15.80;10.55;;;2.80;99.90;;;;;;5063015;28;20635;-84
2022/04/03 04:31:56;;;;;;;14.80;11.30;;;2.70;99.90;;;;;;5061627;28;20264;-85
2022/04/03 04:34:23;;;;;;;15.57;9.57;;;2.90;99.90;;;;;;5061171;28;20179;-85
2022/04/03 04:36:51;;;;;;;16.50;10.30;;;2.70;99.90;;;;;;5068058;28;20196;-85
2022/04/03 04:39:18;;;;;;;14.77;9.20;;;2.80;99.90;;;;;;5076933;28;20229;-85
2022/04/03 04:41:45;;;;;;;17.27;11.48;;;2.80;99.90;;;;;;5080658;22;20240;-86
2022/04/03 04:44:13;;;;;;;18.77;11.13;;;2.70;99.90;;;;;;5058055;28;20233;-84
2022/04/03 04:46:40;;;;;;;14.82;9.75;;;2.80;99.90;;;;;;5056844;28;20587;-86
2022/04/03 04:49:08;;;;;;;17.73;10.75;;;2.90;99.90;;;;;;5056803;28;20286;-86
2022/04/03 04:51:35;;;;;;;16.35;11.65;;;2.60;99.90;;;;;;5057854;28;20233;-86
2022/04/03 04:54:01;;;;;;;14.93;10.57;;;2.50;99.90;;;;;;5058180;28;20198;-87
2022/04/03 04:56:28;;;;;;;14.57;11.05;;;2.90;99.90;;;;;;5062462;28;20276;-86
2022/04/03 04:58:55;;;;;;;20.77;12.60;;;2.80;99.90;;;;;;5064449;28;20234;-86
2022/04/03 05:01:22;;;;;;;17.92;11.60;;;2.80;99.90;;;;;;5064531;28;20228;-86
2022/04/03 05:03:49;;;;;;;17.52;11.38;;;2.90;99.90;;;;;;5070367;28;20210;-85
2022/04/03 05:06:17;;;;;;;16.08;9.48;;;2.60;99.90;;;;;;5066644;28;20210;-85
2022/04/03 05:08:44;;;;;;;16.30;10.63;;;2.80;99.90;;;;;;5062663;28;20240;-85
2022/04/03 05:11:13;;;;;;;17.00;12.10;;;2.70;99.90;;;;;;5063365;28;20226;-84
2022/04/03 05:13:40;;;;;;;19.60;11.60;;;2.90;99.90;;;;;;5066937;28;20217;-85
2022/04/03 05:16:07;;;;;;;17.77;11.93;;;2.80;99.90;;;;;;5063658;28;20236;-85
2022/04/03 05:18:36;;;;;;;17.67;11.68;;;2.70;99.90;;;;;;5063523;28;20216;-86
2022/04/03 05:21:02;;;;;;;15.73;12.38;;;3.00;99.90;;;;;;5066732;28;20217;-87
2022/04/03 05:23:31;;;;;;;16.95;11.60;;;2.80;99.90;;;;;;5072485;28;20565;-85
2022/04/03 05:25:58;;;;;;;18.33;11.85;;;2.80;99.90;;;;;;5074856;28;20256;-84
2022/04/03 05:28:26;;;;;;;18.73;12.45;;;2.60;99.90;;;;;;5075757;28;20324;-84
2022/04/03 05:30:53;;;;;;;19.48;10.25;;;2.60;99.90;;;;;;5068792;28;20229;-85
2022/04/03 05:33:20;;;;;;;16.20;11.30;;;2.80;99.90;;;;;;5062987;28;20224;-86
2022/04/03 05:35:47;;;;;;;12.27;7.35;;;2.90;99.90;;;;;;5074000;28;20228;-85
2022/04/03 05:38:14;;;;;;;17.35;9.93;;;2.80;99.90;;;;;;5074575;28;20210;-84
2022/04/03 05:40:42;;;;;;;15.70;9.65;;;2.90;99.90;;;;;;5074268;28;20210;-85
2022/04/03 05:43:09;;;;;;;16.20;11.02;;;2.70;99.90;;;;;;5071099;28;20287;-85
2022/04/03 05:45:37;;;;;;;16.85;10.77;;;2.80;99.90;;;;;;5063736;28;20293;-85
2022/04/03 05:48:05;;;;;;;18.25;11.80;;;2.60;99.90;;;;;;5061122;28;20214;-87
2022/04/03 05:50:32;;;;;;;14.98;10.18;;;2.80;99.90;;;;;;5060773;28;20206;-85
2022/04/03 05:52:59;;;;;;;17.30;9.48;;;2.70;99.90;;;;;;5062032;28;20639;-86
2022/04/03 05:55:26;;;;;;;15.60;9.65;;;2.90;99.90;;;;;;5060769;28;20687;-86
2022/04/03 05:57:55;;;;;;;14.35;9.32;;;2.70;99.90;;;;;;5061381;28;20206;-84
2022/04/03 06:00:24;;;;;;;12.85;9.23;;;3.00;99.90;;;;;;5060277;28;20233;-85
2022/04/03 06:02:52;;;;;;;15.10;8.55;;;2.60;99.90;;;;;;5060150;28;20617;-86
2022/04/03 06:05:21;;;;;;;14.63;9.50;;;2.60;99.90;;;;;;5060338;28;20634;-85
2022/04/03 06:07:48;;;;;;;12.50;8.45;;;2.70;99.90;;;;;;5063308;28;20585;-86
2022/04/03 06:10:16;;;;;;;14.20;8.00;;;2.60;99.90;;;;;;5064012;28;20206;-85
2022/04/03 06:12:57;;;;;;;11.40;8.23;;;2.80;99.90;;;;;;5067552;28;20253;-87
2022/04/03 06:15:26;;;;;;;12.27;8.10;;;2.90;99.90;;;;;;5075206;28;20296;-85
2022/04/03 06:17:56;;;;;;;10.73;7.15;;;2.80;99.90;;;;;;5076048;28;20226;-84
2022/04/03 06:20:23;;;;;;;12.07;8.18;;;2.60;99.90;;;;;;5072712;28;20274;-86
2022/04/03 06:22:50;;;;;;;11.55;7.53;;;2.60;99.90;;;;;;5071436;28;20380;-86
2022/04/03 06:25:18;;;;;;;11.65;6.90;;;2.90;99.90;;;;;;5063259;28;20586;-87
2022/04/03 06:27:45;;;;;;;15.20;8.10;;;2.80;99.90;;;;;;5061622;28;20301;-86
2022/04/03 06:30:14;;;;;;;12.48;8.00;;;2.40;99.90;;;;;;5059838;28;20210;-86
2022/04/03 06:32:41;;;;;;;13.18;8.48;;;2.90;99.90;;;;;;5060323;28;20252;-86
2022/04/03 06:35:09;;;;;;;11.77;7.25;;;3.00;99.90;;;;;;5060387;28;20586;-84
2022/04/03 06:37:38;;;;;;;7.72;5.88;;;2.90;99.90;;;;;;5060422;28;20650;-85
2022/04/03 06:40:07;;;;;;;11.65;7.05;;;3.10;99.90;;;;;;5061801;28;20627;-85
2022/04/03 06:42:34;;;;;;;9.93;7.43;;;3.00;99.90;;;;;;5057902;28;20234;-84
2022/04/03 06:45:02;;;;;;;11.23;7.85;;;3.10;99.90;;;;;;5063532;28;20278;-86
2022/04/03 06:47:31;;;;;;;10.13;5.88;;;3.20;99.90;;;;;;5065660;28;20237;-84
2022/04/03 06:49:58;;;;;;;9.57;6.50;;;3.00;99.90;;;;;;5058608;28;20611;-85
2022/04/03 06:52:25;;;;;;;9.32;5.80;;;3.10;99.90;;;;;;5062476;28;20222;-85
2022/04/03 06:54:55;;;;;;;8.30;4.00;;;3.30;99.90;;;;;;5075530;28;20220;-84
2022/04/03 06:57:22;;;;;;;9.00;5.78;;;3.20;99.90;;;;;;5065760;28;20210;-87
2022/04/03 06:59:48;;;;;;;9.30;6.75;;;2.80;99.90;;;;;;5061155;28;20244;-85
2022/04/03 07:02:15;;;;;;;9.48;5.35;;;3.00;99.90;;;;;;5060302;28;20639;-85
2022/04/03 07:04:45;;;;;;;9.45;6.40;;;2.60;99.90;;;;;;5060499;28;20206;-85
2022/04/03 07:07:12;;;;;;;11.60;6.18;;;3.20;99.90;;;;;;5067587;28;20216;-85
2022/04/03 07:09:39;;;;;;;9.10;5.72;;;3.30;99.90;;;;;;5061238;28;20218;-85
2022/04/03 07:12:07;;;;;;;10.43;7.10;;;3.20;99.90;;;;;;5065260;28;20236;-85
2022/04/03 07:14:34;;;;;;;9.90;7.47;;;3.40;99.90;;;;;;5065377;28;20208;-87
2022/04/03 07:17:01;;;;;;;11.18;6.03;;;3.30;99.90;;;;;;5062824;28;20667;-86
2022/04/03 07:19:27;;;;;;;10.20;6.80;;;3.60;99.90;;;;;;5061005;28;20244;-85
2022/04/03 07:21:57;;;;;;;9.15;5.85;;;3.30;99.90;;;;;;5059126;28;20225;-85
2022/04/03 07:24:25;;;;;;;9.45;6.70;;;3.60;99.90;;;;;;5059047;28;20198;-84
2022/04/03 07:26:51;;;;;;;12.32;6.93;;;3.60;99.90;;;;;;5059383;28;20214;-86
2022/04/03 07:29:18;;;;;;;11.80;6.22;;;3.60;99.90;;;;;;5059925;28;20272;-84
2022/04/03 07:31:45;;;;;;;11.80;6.75;;;3.10;99.90;;;;;;5064317;28;20272;-86
2022/04/03 07:34:12;;;;;;;11.57;7.30;;;3.50;99.90;;;;;;5059867;28;20228;-85
2022/04/03 07:36:39;;;;;;;8.98;6.20;;;3.70;99.90;;;;;;5063513;28;20216;-86
2022/04/03 07:39:09;;;;;;;9.50;6.80;;;3.50;99.90;;;;;;5062942;28;20241;-84
2022/04/03 07:41:36;;;;;;;9.20;6.78;;;3.10;99.90;;;;;;5070142;28;20222;-86
2022/04/03 07:44:04;;;;;;;11.65;6.85;;;3.40;99.90;;;;;;5072517;28;20337;-85
2022/04/03 07:46:31;;;;;;;12.38;7.03;;;3.70;99.90;;;;;;5062332;28;20214;-86
2022/04/03 07:48:58;;;;;;;11.20;7.78;;;3.80;99.90;;;;;;5059880;28;20213;-84
2022/04/03 07:51:26;;;;;;;10.65;7.18;;;3.40;99.90;;;;;;5060370;28;20309;-86
2022/04/03 07:53:53;;;;;;;11.27;6.10;;;3.80;99.90;;;;;;5061842;28;20206;-86
2022/04/03 07:56:21;;;;;;;10.05;6.38;;;3.50;99.90;;;;;;5064336;28;20202;-85
2022/04/03 07:58:48;;;;;;;9.60;6.35;;;4.10;99.90;;;;;;5061200;28;20206;-85
2022/04/03 08:01:15;;;;;;;10.10;6.85;;;3.40;99.90;;;;;;5064585;28;20278;-83
2022/04/03 08:03:42;;;;;;;8.13;5.78;;;3.80;99.90;;;;;;5071082;28;20237;-85
2022/04/03 08:06:11;;;;;;;7.93;5.13;;;3.70;99.90;;;;;;5069777;28;20260;-87
2022/04/03 08:08:39;;;;;;;8.27;5.85;;;3.40;99.90;;;;;;5060483;28;20198;-85
2022/04/03 08:11:06;;;;;;;10.05;5.50;;;3.90;99.90;;;;;;5059075;28;20644;-86
2022/04/03 08:13:34;;;;;;;10.23;6.10;;;3.90;99.90;;;;;;5060495;28;20206;-86
2022/04/03 08:16:01;;;;;;;10.13;7.07;;;3.40;99.90;;;;;;5059792;28;20289;-87
2022/04/03 08:18:28;;;;;;;11.93;6.50;;;4.00;99.90;;;;;;5059326;28;20221;-85
2022/04/03 08:20:55;;;;;;;7.65;5.55;;;3.80;99.90;;;;;;5059119;28;20313;-84
2022/04/03 08:23:22;;;;;;;8.32;5.47;;;3.70;99.90;;;;;;5059499;28;20303;-85
2022/04/03 08:25:49;;;;;;;8.13;5.63;;;3.90;99.90;;;;;;5059341;28;20241;-85
2022/04/03 08:28:17;;;;;;;8.50;4.93;;;3.60;99.90;;;;;;5060112;28;20221;-86
2022/04/03 08:30:45;;;;;;;8.52;5.15;;;3.70;99.90;;;;;;5058577;28;20630;-86
2022/04/03 08:33:12;;;;;;;12.60;6.13;;;3.70;99.90;;;;;;5059207;28;20632;-84
2022/04/03 08:35:40;;;;;;;10.63;6.47;;;3.70;99.90;;;;;;5060080;28;20626;-84
2022/04/03 08:38:07;;;;;;;7.80;5.63;;;3.90;99.90;;;;;;5060477;28;20654;-86
2022/04/03 08:40:36;;;;;;;6.47;4.60;;;4.00;99.90;;;;;;5059339;28;20216;-87
2022/04/03 08:43:04;;;;;;;8.77;5.78;;;4.00;99.90;;;;;;5059231;28;20226;-85
2022/04/03 08:45:31;;;;;;;8.13;5.45;;;4.20;99.90;;;;;;5066458;28;20256;-85
2022/04/03 08:48:02;;;;;;;8.75;5.47;;;3.60;99.90;;;;;;5064203;28;20226;-86
2022/04/03 08:50:31;;;;;;;9.50;6.93;;;3.60;99.90;;;;;;5059653;28;20556;-86
2022/04/03 08:53:00;;;;;;;8.02;5.57;;;3.60;99.90;;;;;;5062375;28;20228;-86
2022/04/03 08:55:27;;;;;;;11.23;6.00;;;3.70;99.90;;;;;;5059183;28;20573;-84
2022/04/03 08:57:55;;;;;;;8.13;5.70;;;4.00;99.90;;;;;;5059637;28;20298;-85
2022/04/03 09:00:23;;;;;;;8.45;5.35;;;4.10;99.90;;;;;;5072263;28;20198;-83
2022/04/03 09:02:52;;;;;;;10.93;6.30;;;3.90;99.90;;;;;;5070281;28;20637;-84
2022/04/03 09:05:24;;;;;;;9.10;4.90;;;4.30;99.90;;;;;;5061299;28;20214;-84
2022/04/03 09:08:01;;;;;;;6.57;5.10;;;4.20;99.90;;;;;;5068551;28;20194;-84
2022/04/03 09:10:29;;;;;;;8.30;4.93;;;4.50;99.90;;;;;;5072098;28;20215;-86
2022/04/03 09:12:56;;;;;;;10.18;6.25;;;4.80;99.90;;;;;;5063265;28;20202;-87
2022/04/03 09:15:24;;;;;;;7.93;4.95;;;4.70;99.90;;;;;;5066494;28;20221;-87
2022/04/03 09:17:54;;;;;;;10.13;5.65;;;4.70;99.90;;;;;;5064367;28;20194;-86
2022/04/03 09:20:24;;;;;;;7.60;5.10;;;4.70;99.90;;;;;;5065422;28;20203;-86
2022/04/03 09:22:53;;;;;;;7.50;5.13;;;4.60;99.90;;;;;;5065296;28;20230;-85
2022/04/03 09:25:25;;;;;;;10.00;5.80;;;4.40;99.90;;;;;;5062026;28;20550;-85
2022/04/03 09:27:54;;;;;;;9.75;4.70;;;4.80;99.90;;;;;;5061351;28;20234;-86
2022/04/03 09:30:22;;;;;;;9.70;6.07;;;4.60;99.90;;;;;;5059962;28;20561;-86
2022/04/03 09:32:52;;;;;;;8.73;5.32;;;4.40;99.90;;;;;;5059985;28;20734;-86
2022/04/03 09:35:21;;;;;;;7.43;4.97;;;4.40;99.90;;;;;;5060023;28;20217;-84
2022/04/03 09:38:12;;;;;;;7.53;5.13;;;4.40;99.90;;;;;;5060745;28;20230;-86
2022/04/03 09:40:40;;;;;;;7.93;4.70;;;4.40;99.90;;;;;;5057853;28;20229;-84
2022/04/03 09:43:15;;;;;;;7.25;4.32;;;4.70;99.90;;;;;;5059093;28;20316;-86
2022/04/03 09:45:46;;;;;;;6.95;5.18;;;4.70;99.90;;;;;;5068263;28;20245;-86
2022/04/03 09:48:27;;;;;;;8.18;5.20;;;4.70;99.90;;;;;;5059604;28;20217;-86
2022/04/03 09:51:03;;;;;;;8.50;4.75;;;4.90;99.90;;;;;;5059654;28;20257;-86
2022/04/03 09:53:45;;;;;;;7.00;4.35;;;5.30;99.90;;;;;;5068077;28;20222;-86
2022/04/03 09:56:17;;;;;;;5.80;3.10;;;5.30;99.90;;;;;;5067723;28;20253;-86
2022/04/03 09:59:05;;;;;;;6.68;3.85;;;4.70;99.90;;;;;;5064884;28;20179;-86
2022/04/03 10:01:44;;;;;;;8.30;4.38;;;5.10;99.90;;;;;;5065817;28;20225;-85
2022/04/03 10:04:26;;;;;;;5.80;3.20;;;5.00;99.90;;;;;;5064336;28;20210;-83
2022/04/03 10:06:55;;;;;;;8.10;4.45;;;4.80;99.90;;;;;;5064713;28;20183;-84
2022/04/03 10:09:24;;;;;;;6.68;4.90;;;4.20;99.90;;;;;;5067092;28;20241;-86
2022/04/03 10:11:51;;;;;;;7.35;4.85;;;4.10;99.90;;;;;;5065207;28;20230;-84
2022/04/03 10:14:21;;;;;;;9.00;5.32;;;3.90;99.90;;;;;;5066403;28;20206;-85
2022/04/03 10:16:48;;;;;;;7.72;5.03;;;4.00;99.90;;;;;;5069939;28;20214;-86
2022/04/03 10:19:15;;;;;;;6.47;4.20;;;4.00;99.90;;;;;;5072613;28;20198;-86
2022/04/03 10:21:45;;;;;;;8.63;5.75;;;4.20;99.90;;;;;;5075008;28;20226;-85
2022/04/03 10:24:16;;;;;;;8.50;5.15;;;4.40;99.90;;;;;;5071187;28;20242;-85
2022/04/03 10:26:49;;;;;;;6.32;4.13;;;4.30;99.90;;;;;;5067885;28;20186;-85
2022/04/03 10:29:16;;;;;;;6.72;4.70;;;4.20;99.90;;;;;;5070566;28;20202;-88
2022/04/03 10:31:56;;;;;;;6.97;4.35;;;4.10;99.90;;;;;;5068352;28;20333;-87
2022/04/03 10:34:23;;;;;;;6.90;4.78;;;4.20;99.90;;;;;;5068345;28;20657;-86
2022/04/03 10:36:52;;;;;;;10.88;4.13;;;4.20;99.90;;;;;;5066901;28;20237;-86
2022/04/03 10:39:24;;;;;;;5.90;4.13;;;3.70;99.90;;;;;;5064676;28;20206;-86
2022/04/03 10:42:21;;;;;;;5.95;3.08;;;4.20;99.90;;;;;;5147990;22;20233;-85
2022/04/03 10:45:25;;;;;;;6.97;4.70;;;4.30;99.90;;;;;;5073618;28;20597;-86
2022/04/03 10:47:55;;;;;;;7.68;4.28;;;4.10;99.90;;;;;;5069321;28;20194;-86
2022/04/03 10:50:28;;;;;;;6.93;4.15;;;3.90;99.90;;;;;;5064554;28;20206;-85
2022/04/03 10:52:59;;;;;;;13.65;5.10;;;4.10;99.90;;;;;;5067354;28;20285;-86
2022/04/03 10:55:38;;;;;;;10.60;5.18;;;4.00;99.90;;;;;;5076344;28;20213;-85
2022/04/03 11:01:13;;;;;;;7.45;4.13;;;4.50;99.90;;;;;;5067562;28;20572;-86
2022/04/03 11:03:55;;;;;;;7.65;4.47;;;4.70;99.90;;;;;;5071911;28;20282;-86
2022/04/03 11:06:37;;;;;;;5.60;3.65;;;5.20;99.90;;;;;;5066859;28;20198;-86
2022/04/03 11:09:19;;;;;;;5.45;3.90;;;5.00;99.90;;;;;;5065844;28;20655;-86
2022/04/03 11:11:58;;;;;;;8.13;4.45;;;4.90;99.90;;;;;;5068201;28;20696;-85
2022/04/03 11:14:55;;;;;;;7.63;4.10;;;4.80;99.90;;;;;;5063154;28;20278;-86
2022/04/03 11:17:59;;;;;;;6.53;4.22;;;4.70;99.90;;;;;;5066226;28;20202;-86
2022/04/03 11:20:39;;;;;;;6.90;4.13;;;5.00;99.90;;;;;;5064297;28;20224;-86
2022/04/03 11:23:22;;;;;;;7.47;3.95;;;5.00;99.90;;;;;;5062971;28;20321;-87
2022/04/03 11:25:57;;;;;;;5.82;3.58;;;5.10;99.90;;;;;;5066486;28;20222;-85
2022/04/03 11:28:26;;;;;;;8.45;3.63;;;5.30;99.90;;;;;;5072787;28;20253;-86
2022/04/03 11:31:03;;;;;;;5.80;3.38;;;5.60;99.90;;;;;;5075196;28;20198;-86
2022/04/03 11:33:35;;;;;;;7.13;3.47;;;5.70;99.90;;;;;;5074161;28;20202;-86
2022/04/03 11:36:08;;;;;;;5.60;3.55;;;6.00;99.90;;;;;;5067666;28;20214;-85
2022/04/03 11:38:41;;;;;;;6.22;3.50;;;5.60;99.00;;;;;;5060302;28;20206;-86
2022/04/03 11:41:15;;;;;;;6.30;3.75;;;5.50;99.90;;;;;;5062011;28;20226;-85
2022/04/03 11:43:55;;;;;;;6.80;3.85;;;5.50;99.60;;;;;;5060358;28;20230;-86
2022/04/03 11:46:34;;;;;;;6.18;3.05;;;5.40;99.50;;;;;;5059210;28;20190;-86
2022/04/03 11:49:01;;;;;;;4.63;3.13;;;5.40;98.40;;;;;;5059556;28;20217;-85
2022/04/03 11:54:13;;;;;;;6.22;3.22;;;5.40;99.90;;;;;;5060612;28;20221;-86
2022/04/03 11:56:43;;;;;;;8.40;3.78;;;5.50;99.90;;;;;;5060266;28;20249;-86
2022/04/03 11:59:19;;;;;;;7.43;3.60;;;5.40;99.90;;;;;;5061534;28;20198;-86
2022/04/03 12:01:51;;;;;;;9.10;4.38;;;5.40;99.30;;;;;;5061348;28;20255;-86
2022/04/03 12:04:24;;;;;;;7.00;3.95;;;5.30;99.90;;;;;;5060392;28;20289;-86
2022/04/03 12:07:04;;;;;;;5.28;3.40;;;5.30;99.90;;;;;;5060322;28;20186;-86
2022/04/03 12:09:42;;;;;;;5.90;3.60;;;5.40;99.50;;;;;;5061164;28;20216;-86
2022/04/03 12:12:16;;;;;;;5.88;3.83;;;5.20;99.40;;;;;;5054375;28;20243;-86
2022/04/03 12:14:50;;;;;;;7.00;3.50;;;5.50;99.80;;;;;;5063085;28;20198;-86
2022/04/03 12:17:38;;;;;;;6.07;2.85;;;5.70;99.70;;;;;;5064223;28;20205;-86
2022/04/03 12:20:17;;;;;;;5.30;2.95;;;5.80;98.70;;;;;;5062579;28;20213;-86
2022/04/03 12:22:53;;;;;;;4.72;3.00;;;5.70;98.60;;;;;;5065455;28;20312;-84
2022/04/03 12:25:40;;;;;;;5.85;3.20;;;5.00;98.30;;;;;;5065680;28;20244;-85
2022/04/03 12:28:12;;;;;;;6.72;3.53;;;5.40;99.20;;;;;;5066045;28;20232;-84
2022/04/03 12:30:39;;;;;;;5.38;3.22;;;5.50;99.70;;;;;;5065599;28;20231;-85
2022/04/03 12:33:10;;;;;;;4.57;2.20;;;5.40;99.90;;;;;;5064518;28;20226;-85
2022/04/03 12:44:08;;;;;;;5.60;2.50;;;5.40;99.90;;;;;;5072314;28;20237;-84
2022/04/03 12:47:01;;;;;;;7.68;3.83;;;5.00;99.80;;;;;;5067623;28;20223;-86
2022/04/03 12:49:38;;;;;;;9.73;4.13;;;4.70;99.90;;;;;;5063458;28;20206;-85
2022/04/03 12:52:06;;;;;;;6.65;4.30;;;5.30;99.90;;;;;;5067759;28;20241;-84
2022/04/03 12:54:55;;;;;;;9.57;4.18;;;5.10;99.90;;;;;;5064612;28;20260;-85
2022/04/03 13:00:19;;;;;;;7.03;4.60;;;5.40;99.90;;;;;;5064969;28;20212;-83
2022/04/03 13:03:03;;;;;;;7.30;4.22;;;5.60;99.90;;;;;;5070481;28;20237;-86
2022/04/03 13:05:39;;;;;;;6.63;4.03;;;5.40;99.90;;;;;;5070385;28;20221;-85
2022/04/03 13:08:11;;;;;;;6.60;3.95;;;5.60;99.90;;;;;;5068328;28;20206;-85
2022/04/03 13:10:51;;;;;;;9.80;4.50;;;5.30;99.90;;;;;;5072931;28;20274;-85
2022/04/03 13:13:21;;;;;;;8.20;4.00;;;5.30;99.90;;;;;;5075784;28;20186;-85
2022/04/03 13:15:51;;;;;;;6.63;4.07;;;5.20;99.90;;;;;;5074915;28;20266;-85
2022/04/03 13:18:19;;;;;;;7.57;4.07;;;5.30;99.90;;;;;;5072428;28;20242;-85